Time;durP1;ratioP1;P1;durP2;ratioP2;P2;SDS_P1;SDS_P2;PMS_P1;PMS_P2;Temp;Humidity;BMP_temperature;BMP_pressure;BME280_temperature;BME280_humidity;BME280_pressure;Samples;Min_cycle;Max_cycle;Signal;HPM_P1;HPM_P2
2023/08/24 00:04:28;;;;;;;26.08;19.33;;;18.50;99.90;;;;;;21021036;28;20044;-62
2023/08/24 00:14:29;;;;;;;25.30;18.77;;;18.70;99.90;;;;;;21053486;28;20334;-62
2023/08/24 00:24:31;;;;;;;26.98;19.85;;;18.40;99.90;;;;;;21053027;28;20028;-62
2023/08/24 00:34:33;;;;;;;24.30;17.55;;;18.50;99.90;;;;;;21053685;28;20036;-61
2023/08/24 00:44:34;;;;;;;29.55;20.25;;;18.60;99.90;;;;;;21051190;28;20024;-61
2023/08/24 00:54:39;;;;;;;25.95;19.20;;;18.50;99.90;;;;;;21048430;28;20032;-61
2023/08/24 01:04:42;;;;;;;23.65;18.77;;;18.10;99.90;;;;;;21028462;28;20070;-62
2023/08/24 01:14:51;;;;;;;27.23;20.27;;;18.00;99.90;;;;;;21048843;28;20040;-62
2023/08/24 01:25:15;;;;;;;25.88;18.23;;;18.00;99.90;;;;;;21026328;28;20481;-52
2023/08/24 01:35:17;;;;;;;24.67;18.55;;;18.20;99.90;;;;;;21048103;28;20037;-62
2023/08/24 01:45:19;;;;;;;28.23;20.73;;;18.60;99.90;;;;;;21039229;28;20443;-62
2023/08/24 01:55:21;;;;;;;22.27;17.20;;;18.40;99.90;;;;;;21025334;28;20032;-61
2023/08/24 02:05:27;;;;;;;22.90;17.30;;;18.20;99.90;;;;;;21026195;28;20061;-62
2023/08/24 02:15:29;;;;;;;23.13;17.50;;;18.10;99.90;;;;;;21049416;28;20100;-62
2023/08/24 02:25:32;;;;;;;27.02;20.17;;;17.90;99.90;;;;;;21059592;28;20054;-62
2023/08/24 02:35:34;;;;;;;28.50;22.23;;;17.90;99.90;;;;;;21039943;28;20057;-62
2023/08/24 02:45:36;;;;;;;29.85;21.35;;;18.10;99.90;;;;;;21042702;28;20045;-51
2023/08/24 02:55:38;;;;;;;20.48;15.13;;;18.00;99.90;;;;;;21060010;28;20044;-62
2023/08/24 03:05:51;;;;;;;23.02;16.25;;;18.10;99.90;;;;;;21033929;28;20052;-52
2023/08/24 03:15:53;;;;;;;25.60;15.07;;;18.10;99.90;;;;;;21059727;28;20032;-62
2023/08/24 03:25:55;;;;;;;23.67;16.08;;;18.20;99.90;;;;;;21023965;28;20320;-53
2023/08/24 03:35:57;;;;;;;20.13;15.27;;;18.20;99.90;;;;;;21002285;28;20531;-62
2023/08/24 03:45:59;;;;;;;22.95;16.13;;;18.10;99.90;;;;;;21027901;28;20032;-62
2023/08/24 03:56:01;;;;;;;20.98;16.88;;;17.90;99.90;;;;;;21014525;28;20032;-62
2023/08/24 04:06:03;;;;;;;24.95;18.00;;;17.70;99.90;;;;;;20995509;28;20125;-54
2023/08/24 04:16:05;;;;;;;23.33;18.13;;;17.60;99.90;;;;;;21020858;28;20093;-62
2023/08/24 04:26:07;;;;;;;25.48;19.73;;;17.70;99.90;;;;;;21016179;28;20040;-62
2023/08/24 04:36:09;;;;;;;26.80;16.80;;;17.70;99.90;;;;;;20995640;28;20029;-62
2023/08/24 04:46:10;;;;;;;24.83;18.85;;;17.90;99.90;;;;;;21016990;28;20036;-62
2023/08/24 04:56:12;;;;;;;22.33;17.05;;;18.10;99.90;;;;;;20996887;28;20028;-62
2023/08/24 05:06:14;;;;;;;25.33;18.17;;;18.10;99.90;;;;;;21001905;28;20106;-60
2023/08/24 05:16:16;;;;;;;24.20;16.23;;;18.30;99.90;;;;;;21007976;28;20512;-57
2023/08/24 05:26:22;;;;;;;26.40;20.27;;;18.40;99.90;;;;;;20986159;28;21432;-61
2023/08/24 05:36:24;;;;;;;26.13;20.20;;;18.60;99.90;;;;;;21000871;28;20061;-62
2023/08/24 05:46:26;;;;;;;22.85;18.70;;;18.60;99.90;;;;;;21000874;28;20439;-62
2023/08/24 05:56:27;;;;;;;23.80;18.02;;;18.70;99.90;;;;;;20982395;28;20045;-62
2023/08/24 06:06:32;;;;;;;27.15;19.48;;;18.80;99.90;;;;;;21008257;28;20044;-62
2023/08/24 06:16:34;;;;;;;26.48;18.77;;;19.10;99.90;;;;;;20993906;28;20035;-62
2023/08/24 06:26:36;;;;;;;26.40;20.48;;;19.40;99.90;;;;;;20999682;28;20036;-54
2023/08/24 06:36:38;;;;;;;21.05;16.77;;;19.80;99.90;;;;;;21003438;28;20036;-56
2023/08/24 06:46:40;;;;;;;16.80;14.63;;;20.90;99.90;;;;;;20996850;28;20467;-64
2023/08/24 06:56:43;;;;;;;18.20;14.77;;;22.40;99.90;;;;;;21007574;28;20040;-56
2023/08/24 07:06:45;;;;;;;17.80;13.98;;;23.90;99.90;;;;;;21011084;28;20052;-66
2023/08/24 07:16:47;;;;;;;13.85;12.40;;;24.50;99.90;;;;;;21015336;28;20060;-66
2023/08/24 07:26:48;;;;;;;15.55;13.93;;;25.90;99.90;;;;;;20999330;28;20567;-54
2023/08/24 07:36:50;;;;;;;16.17;13.90;;;26.80;99.90;;;;;;21014672;28;20539;-65
2023/08/24 07:46:52;;;;;;;13.60;12.20;;;27.40;99.90;;;;;;21027216;28;20436;-66
2023/08/24 07:56:54;;;;;;;13.07;11.77;;;28.40;99.90;;;;;;20992029;28;20028;-67
2023/08/24 08:06:56;;;;;;;15.43;13.00;;;29.10;99.90;;;;;;20990612;28;20467;-66
2023/08/24 08:16:58;;;;;;;15.02;12.80;;;29.50;99.50;;;;;;21004601;28;20032;-65
2023/08/24 08:27:00;;;;;;;15.70;14.10;;;29.90;98.90;;;;;;21000151;28;20519;-65
2023/08/24 08:37:02;;;;;;;16.35;14.65;;;30.00;99.60;;;;;;21022117;28;20755;-64
2023/08/24 08:47:06;;;;;;;15.13;13.52;;;30.20;98.90;;;;;;21012279;28;20036;-64
2023/08/24 08:57:09;;;;;;;14.23;12.87;;;30.20;98.80;;;;;;20998766;28;20050;-64
2023/08/24 09:07:14;;;;;;;16.98;15.20;;;30.70;98.00;;;;;;21012339;28;20101;-64
2023/08/24 09:17:22;;;;;;;15.97;14.43;;;31.20;97.20;;;;;;21005863;28;20476;-64
2023/08/24 09:27:24;;;;;;;16.55;14.95;;;31.10;96.90;;;;;;21011833;28;20547;-64
2023/08/24 09:37:26;;;;;;;16.42;14.40;;;31.10;96.80;;;;;;20995334;28;20036;-63
2023/08/24 09:47:27;;;;;;;16.02;14.43;;;31.30;97.50;;;;;;20999840;28;20028;-63
2023/08/24 09:57:31;;;;;;;17.75;13.98;;;31.40;96.40;;;;;;21011402;28;20413;-55
2023/08/24 10:07:35;;;;;;;15.00;13.55;;;31.30;96.90;;;;;;21001981;28;20447;-63
2023/08/24 10:17:39;;;;;;;15.90;13.93;;;31.50;95.90;;;;;;21012526;28;20473;-63
2023/08/24 10:27:45;;;;;;;14.88;12.95;;;31.70;97.00;;;;;;21015034;28;20035;-63
2023/08/24 10:37:52;;;;;;;13.82;12.63;;;31.80;96.30;;;;;;21008017;28;20037;-62
2023/08/24 10:47:54;;;;;;;19.88;14.10;;;32.00;95.30;;;;;;21015225;28;20462;-63
2023/08/24 10:58:04;;;;;;;14.10;12.63;;;32.00;94.70;;;;;;21027151;28;20799;-62
2023/08/24 11:08:06;;;;;;;14.50;12.52;;;31.80;95.90;;;;;;21014896;28;20044;-62
2023/08/24 11:18:19;;;;;;;19.38;14.20;;;32.10;95.60;;;;;;21005349;28;20610;-62
2023/08/24 11:28:23;;;;;;;18.80;15.05;;;32.00;94.80;;;;;;21027889;28;20036;-62
2023/08/24 11:38:35;;;;;;;20.08;15.35;;;32.00;95.20;;;;;;21008986;28;20036;-62
2023/08/24 11:48:39;;;;;;;17.48;13.68;;;32.00;94.40;;;;;;21022988;28;20036;-63
2023/08/24 11:58:42;;;;;;;13.87;11.30;;;31.90;94.70;;;;;;21013868;28;20055;-63
2023/08/24 12:08:48;;;;;;;13.52;10.38;;;31.80;95.30;;;;;;20999997;28;20039;-62
2023/08/24 12:19:00;;;;;;;12.77;9.02;;;31.90;92.90;;;;;;20997094;28;20454;-61
2023/08/24 12:29:06;;;;;;;11.57;9.35;;;32.10;93.40;;;;;;20995839;28;20451;-58
2023/08/24 12:39:12;;;;;;;11.10;9.23;;;32.20;92.00;;;;;;21011977;28;20036;-64
2023/08/24 12:49:14;;;;;;;9.63;8.65;;;32.00;93.40;;;;;;21009106;28;20031;-64
2023/08/24 12:59:17;;;;;;;11.48;9.30;;;32.00;91.80;;;;;;21003340;28;20074;-62
2023/08/24 13:09:19;;;;;;;11.88;10.07;;;32.20;91.90;;;;;;21004690;28;20545;-62
2023/08/24 13:19:21;;;;;;;14.57;10.18;;;32.20;91.70;;;;;;21018528;28;20036;-64
2023/08/24 13:29:23;;;;;;;11.32;8.43;;;32.20;92.00;;;;;;21009775;28;20403;-64
2023/08/24 13:39:29;;;;;;;14.75;9.60;;;32.20;91.30;;;;;;20996063;28;20535;-64
2023/08/24 13:49:31;;;;;;;11.27;8.73;;;31.90;90.90;;;;;;20997817;28;20440;-63
2023/08/24 13:59:33;;;;;;;11.60;9.40;;;31.90;92.20;;;;;;20998831;28;20044;-65
2023/08/24 14:09:36;;;;;;;12.98;9.00;;;31.90;92.10;;;;;;20975501;28;20381;-64
2023/08/24 14:19:38;;;;;;;15.10;9.13;;;31.60;92.00;;;;;;21029912;28;20556;-64
2023/08/24 14:29:40;;;;;;;13.23;8.73;;;31.60;91.40;;;;;;21026417;28;20036;-64
2023/08/24 14:39:42;;;;;;;11.13;9.85;;;31.60;91.60;;;;;;21035530;28;20085;-64
2023/08/24 14:49:44;;;;;;;13.75;10.13;;;31.70;91.30;;;;;;21024504;28;20060;-63
2023/08/24 14:59:46;;;;;;;12.07;10.90;;;32.10;91.00;;;;;;20995696;28;20048;-63
2023/08/24 15:09:48;;;;;;;12.13;10.15;;;32.20;90.80;;;;;;21005136;28;20032;-66
2023/08/24 15:19:51;;;;;;;12.15;10.60;;;31.40;90.80;;;;;;21006371;28;20126;-66
2023/08/24 15:29:56;;;;;;;13.37;9.43;;;30.40;91.40;;;;;;21011703;28;20433;-65
2023/08/24 15:39:58;;;;;;;9.73;8.82;;;29.40;93.10;;;;;;21009213;28;20036;-64
2023/08/24 15:50:00;;;;;;;11.85;8.40;;;29.00;98.90;;;;;;20997186;28;20094;-62
2023/08/24 16:00:03;;;;;;;13.63;8.68;;;;;;;;;;21006441;28;20497;-63
2023/08/24 16:10:14;;;;;;;12.20;8.73;;;;;;;;;;21014152;28;20389;-63
2023/08/24 16:20:16;;;;;;;13.80;8.73;;;27.50;99.90;;;;;;21001313;28;20037;-62
2023/08/24 16:30:24;;;;;;;13.40;10.02;;;26.40;95.80;;;;;;21015854;28;20572;-61
2023/08/24 16:40:25;;;;;;;13.77;10.10;;;25.20;96.20;;;;;;21009729;28;20041;-62
2023/08/24 16:50:27;;;;;;;17.95;11.82;;;24.20;98.40;;;;;;21032568;28;20361;-61
2023/08/24 17:00:31;;;;;;;17.85;11.02;;;23.70;99.90;;;;;;21020873;28;20406;-58
2023/08/24 17:10:34;;;;;;;17.60;11.30;;;23.40;99.90;;;;;;21024982;28;20082;-61
2023/08/24 17:20:37;;;;;;;15.70;11.43;;;23.30;99.90;;;;;;20995405;28;20033;-62
2023/08/24 17:30:46;;;;;;;20.35;12.25;;;23.20;99.90;;;;;;20971614;28;20040;-61
2023/08/24 17:41:03;;;;;;;16.88;12.30;;;23.00;99.90;;;;;;20989424;28;20480;-53
2023/08/24 17:51:05;;;;;;;23.20;12.48;;;22.50;99.90;;;;;;21053590;28;20032;-62
2023/08/24 18:01:07;;;;;;;16.95;12.00;;;22.00;99.90;;;;;;21052679;28;20044;-62
2023/08/24 18:11:09;;;;;;;21.98;12.43;;;21.50;99.90;;;;;;21052578;28;20040;-61
2023/08/24 18:21:11;;;;;;;18.50;12.40;;;21.00;99.90;;;;;;21052728;28;20073;-61
2023/08/24 18:31:13;;;;;;;30.20;23.15;;;20.50;99.90;;;;;;21051602;28;20645;-61
2023/08/24 18:41:15;;;;;;;33.33;21.77;;;20.20;99.90;;;;;;21051534;28;20392;-61
2023/08/24 18:51:22;;;;;;;24.75;14.52;;;20.20;99.90;;;;;;21051516;28;20036;-51
2023/08/24 19:01:24;;;;;;;20.13;14.85;;;20.20;99.90;;;;;;21059638;28;20052;-61
2023/08/24 19:11:26;;;;;;;18.50;15.35;;;20.00;99.90;;;;;;21065092;28;20028;-61
2023/08/24 19:21:30;;;;;;;29.20;21.88;;;19.80;99.90;;;;;;21016935;28;20459;-61
2023/08/24 19:31:33;;;;;;;37.08;26.40;;;19.60;99.90;;;;;;20998401;28;20041;-61
2023/08/24 19:41:36;;;;;;;20.50;15.55;;;19.40;99.90;;;;;;21003989;28;20028;-61
2023/08/24 19:51:41;;;;;;;16.23;12.52;;;19.40;99.90;;;;;;20988372;28;20102;-61
2023/08/24 20:01:44;;;;;;;18.90;12.18;;;19.30;99.90;;;;;;21045293;28;20577;-61
2023/08/24 20:11:46;;;;;;;16.70;12.00;;;19.20;99.90;;;;;;21059817;28;20040;-62
2023/08/24 20:21:50;;;;;;;13.48;9.68;;;19.30;99.90;;;;;;21060151;28;20044;-61
2023/08/24 20:31:54;;;;;;;14.50;9.80;;;19.30;99.90;;;;;;20994161;28;20037;-61
2023/08/24 20:42:19;;;;;;;18.25;10.30;;;19.30;99.90;;;;;;21039488;28;20044;-56
2023/08/24 20:52:21;;;;;;;10.80;8.15;;;19.20;99.90;;;;;;21057744;28;20393;-51
2023/08/24 21:02:24;;;;;;;10.07;7.70;;;19.30;99.90;;;;;;21028800;28;20088;-62
2023/08/24 21:12:27;;;;;;;10.95;7.43;;;19.40;99.90;;;;;;21008103;28;20105;-61
2023/08/24 21:22:29;;;;;;;13.55;6.75;;;19.50;99.90;;;;;;21055268;28;20039;-61
2023/08/24 21:32:32;;;;;;;10.40;5.93;;;19.90;99.90;;;;;;21054578;28;20121;-62
2023/08/24 21:42:35;;;;;;;10.70;6.00;;;20.00;99.90;;;;;;21054096;28;20487;-62
2023/08/24 21:52:38;;;;;;;7.82;5.60;;;19.70;99.90;;;;;;21053372;28;20051;-61
2023/08/24 22:02:40;;;;;;;7.60;6.40;;;19.30;99.90;;;;;;21034246;28;20048;-62
2023/08/24 22:12:42;;;;;;;9.82;7.72;;;19.10;99.90;;;;;;21052609;28;20478;-61
2023/08/24 22:22:44;;;;;;;11.02;7.07;;;18.90;99.90;;;;;;21052556;28;20032;-61
2023/08/24 22:32:46;;;;;;;10.27;6.93;;;18.90;99.90;;;;;;21055647;28;20058;-61
2023/08/24 22:42:49;;;;;;;9.07;7.05;;;19.00;99.90;;;;;;21067998;28;20378;-61
2023/08/24 22:52:51;;;;;;;13.77;6.68;;;19.20;99.90;;;;;;21067462;28;20035;-61
2023/08/24 23:02:53;;;;;;;14.20;7.95;;;18.90;99.90;;;;;;21040657;28;20087;-61
2023/08/24 23:12:54;;;;;;;10.32;6.97;;;18.70;99.90;;;;;;21065526;28;20433;-61
2023/08/24 23:22:56;;;;;;;11.68;7.97;;;18.50;99.90;;;;;;21065220;28;20043;-61
2023/08/24 23:32:58;;;;;;;11.88;7.70;;;18.50;99.90;;;;;;21064001;28;20421;-51
2023/08/24 23:43:00;;;;;;;13.32;7.85;;;18.50;99.90;;;;;;21046068;28;20431;-61
2023/08/24 23:53:02;;;;;;;10.65;8.20;;;18.70;99.90;;;;;;21063082;28;20036;-61
